createdAt,value
2023-11-07T00:01:28.929Z,84.20
2023-11-07T00:03:56.142Z,84.20
2023-11-07T00:06:23.832Z,84.30
2023-11-07T00:08:52.504Z,84.30
2023-11-07T00:11:20.151Z,84.30
2023-11-07T00:13:49.531Z,84.10
2023-11-07T00:16:16.671Z,84.20
2023-11-07T00:18:43.917Z,84.10
2023-11-07T00:21:10.975Z,84.10
2023-11-07T00:23:38.891Z,84.10
2023-11-07T00:26:06.256Z,84.00
2023-11-07T00:28:33.175Z,84.00
2023-11-07T00:31:00.085Z,84.00
2023-11-07T00:33:27.001Z,84.00
2023-11-07T00:35:54.042Z,83.90
2023-11-07T00:38:20.975Z,83.90
2023-11-07T00:40:48.839Z,83.90
2023-11-07T00:43:15.764Z,83.90
2023-11-07T00:45:42.731Z,84.00
2023-11-07T00:48:09.795Z,84.00
2023-11-07T00:50:36.862Z,84.00
2023-11-07T00:53:04.883Z,84.00
2023-11-07T00:55:31.941Z,84.00
2023-11-07T00:57:58.951Z,84.10
2023-11-07T01:03:11.155Z,84.30
2023-11-07T01:05:39.556Z,84.40
2023-11-07T01:08:06.405Z,84.30
2023-11-07T01:10:34.169Z,84.30
2023-11-07T01:13:01.060Z,84.30
2023-11-07T01:15:27.924Z,84.20
2023-11-07T01:17:54.836Z,84.20
2023-11-07T01:20:23.471Z,84.20
2023-11-07T01:22:51.370Z,84.20
2023-11-07T01:25:18.357Z,84.20
2023-11-07T01:27:45.156Z,84.20
2023-11-07T01:30:13.014Z,84.30
2023-11-07T01:32:42.419Z,84.30
2023-11-07T01:35:10.733Z,84.30
2023-11-07T01:37:37.852Z,84.30
2023-11-07T01:40:05.451Z,84.40
2023-11-07T01:42:32.303Z,84.40
2023-11-07T01:45:00.968Z,84.30
2023-11-07T01:50:10.975Z,84.40
2023-11-07T01:52:39.127Z,84.40
2023-11-07T01:55:13.161Z,84.40
2023-11-07T01:57:44.511Z,84.40
2023-11-07T02:00:13.752Z,84.30
2023-11-07T02:02:42.176Z,84.30
2023-11-07T02:05:12.845Z,84.30
2023-11-07T02:07:40.593Z,84.30
2023-11-07T02:10:10.365Z,84.20
2023-11-07T02:12:37.606Z,84.20
2023-11-07T02:15:23.873Z,84.20
2023-11-07T02:17:51.711Z,84.10
2023-11-07T02:20:18.924Z,84.10
2023-11-07T02:22:50.326Z,84.20
2023-11-07T02:25:18.151Z,84.10
2023-11-07T02:27:45.097Z,84.10
2023-11-07T02:30:13.679Z,84.00
2023-11-07T02:32:42.089Z,84.00
2023-11-07T02:35:12.233Z,84.00
2023-11-07T02:37:39.740Z,84.10
2023-11-07T02:40:11.865Z,84.20
2023-11-07T02:42:39.253Z,84.20
2023-11-07T02:45:07.161Z,84.10
2023-11-07T02:47:38.103Z,84.20
2023-11-07T02:50:09.171Z,84.10
2023-11-07T02:52:37.665Z,84.10
2023-11-07T02:55:05.046Z,84.00
2023-11-07T02:57:31.908Z,83.90
2023-11-07T02:59:58.858Z,83.70
2023-11-07T03:02:25.754Z,83.80
2023-11-07T03:04:55.442Z,83.90
2023-11-07T03:07:22.960Z,84.00
2023-11-07T03:09:49.891Z,84.00
2023-11-07T03:12:17.610Z,83.90
2023-11-07T03:14:44.860Z,84.00
2023-11-07T03:17:11.760Z,84.10
2023-11-07T03:19:38.573Z,84.20
2023-11-07T03:22:05.893Z,84.30
2023-11-07T03:24:32.887Z,84.20
2023-11-07T03:27:00.218Z,84.20
2023-11-07T03:29:27.133Z,84.30
2023-11-07T03:31:54.983Z,84.40
2023-11-07T03:34:22.502Z,84.50
2023-11-07T03:36:49.534Z,84.60
2023-11-07T03:39:16.920Z,84.60
2023-11-07T03:41:45.922Z,84.70
2023-11-07T03:44:12.946Z,84.70
2023-11-07T03:46:39.803Z,84.80
2023-11-07T03:49:13.119Z,84.70
2023-11-07T03:51:46.095Z,84.80
2023-11-07T03:54:12.926Z,84.70
2023-11-07T03:56:39.919Z,84.70
2023-11-07T03:59:06.675Z,84.60
2023-11-07T04:01:40.595Z,84.50
2023-11-07T04:04:07.613Z,84.50
2023-11-07T04:06:34.908Z,84.60
2023-11-07T04:09:02.411Z,84.60
2023-11-07T04:11:29.362Z,84.80
2023-11-07T04:13:57.672Z,84.80
2023-11-07T04:16:24.483Z,84.90
2023-11-07T04:18:52.836Z,85.10
2023-11-07T04:21:19.761Z,85.10
2023-11-07T04:23:46.549Z,85.00
2023-11-07T04:26:14.031Z,85.00
2023-11-07T04:28:40.783Z,85.20
2023-11-07T04:31:08.931Z,85.20
2023-11-07T04:33:37.082Z,85.30
2023-11-07T04:36:04.156Z,85.30
2023-11-07T04:38:31.632Z,85.40
2023-11-07T04:40:58.861Z,85.40
2023-11-07T04:43:27.268Z,85.30
2023-11-07T04:45:57.436Z,85.40
2023-11-07T04:48:24.390Z,85.30
2023-11-07T04:50:51.217Z,85.40
2023-11-07T04:53:18.209Z,85.40
2023-11-07T04:55:45.215Z,85.40
2023-11-07T04:58:15.437Z,85.60
2023-11-07T05:00:42.330Z,85.60
2023-11-07T05:03:10.425Z,85.70
2023-11-07T05:05:37.309Z,85.60
2023-11-07T05:08:04.378Z,85.60
2023-11-07T05:10:31.105Z,85.60
2023-11-07T05:12:59.413Z,85.60
2023-11-07T05:15:26.492Z,85.70
2023-11-07T05:17:54.704Z,85.80
2023-11-07T05:20:21.584Z,85.70
2023-11-07T05:22:58.011Z,85.70
2023-11-07T05:25:26.599Z,85.60
2023-11-07T05:27:54.574Z,85.50
2023-11-07T05:30:26.844Z,85.50
2023-11-07T05:32:53.906Z,85.40
2023-11-07T05:35:22.550Z,85.40
2023-11-07T05:37:49.766Z,85.40
2023-11-07T05:40:18.263Z,85.40
2023-11-07T05:42:47.820Z,85.40
2023-11-07T05:45:14.977Z,85.40
2023-11-07T05:47:45.727Z,85.40
2023-11-07T05:50:14.034Z,85.50
2023-11-07T05:52:41.299Z,85.80
2023-11-07T05:55:09.635Z,85.80
2023-11-07T05:57:37.180Z,85.80
2023-11-07T06:00:12.123Z,86.10
2023-11-07T06:02:40.182Z,86.10
2023-11-07T06:05:08.044Z,86.00
2023-11-07T06:07:35.719Z,85.90
2023-11-07T06:10:04.275Z,85.90
2023-11-07T06:12:31.118Z,85.90
2023-11-07T06:15:00.780Z,86.00
2023-11-07T06:17:27.740Z,86.20
2023-11-07T06:19:55.188Z,86.10
2023-11-07T06:22:25.497Z,86.10
2023-11-07T06:24:52.632Z,86.10
2023-11-07T06:27:28.578Z,86.30
2023-11-07T06:29:59.816Z,86.30
2023-11-07T06:32:27.405Z,86.50
2023-11-07T06:34:54.352Z,86.20
2023-11-07T06:37:24.439Z,86.30
2023-11-07T06:39:52.891Z,86.20
2023-11-07T06:42:20.070Z,86.20
2023-11-07T06:44:46.873Z,86.30
2023-11-07T06:47:13.733Z,86.20
2023-11-07T06:49:40.677Z,86.40
2023-11-07T06:52:08.916Z,86.40
2023-11-07T06:54:35.748Z,86.40
2023-11-07T06:57:02.890Z,86.40
2023-11-07T06:59:29.784Z,86.30
2023-11-07T07:01:56.707Z,86.40
2023-11-07T07:04:23.815Z,86.30
2023-11-07T07:06:50.650Z,86.30
2023-11-07T07:09:22.504Z,86.20
2023-11-07T07:11:52.600Z,86.40
2023-11-07T07:14:19.823Z,86.40
2023-11-07T07:16:47.905Z,86.50
2023-11-07T07:19:26.406Z,86.80
2023-11-07T07:21:57.102Z,86.90
2023-11-07T07:24:34.855Z,86.80
2023-11-07T07:27:07.918Z,86.60
2023-11-07T07:29:34.666Z,86.60
2023-11-07T07:32:04.641Z,86.70
2023-11-07T07:34:33.576Z,86.40
2023-11-07T07:37:00.486Z,86.50
2023-11-07T07:39:31.822Z,86.50
2023-11-07T07:42:10.602Z,86.60
2023-11-07T07:44:45.710Z,86.50
2023-11-07T07:47:13.246Z,86.40
2023-11-07T07:49:41.691Z,86.40
2023-11-07T07:52:10.893Z,86.30
2023-11-07T07:55:00.388Z,86.30
2023-11-07T07:57:25.553Z,86.20
2023-11-07T07:59:52.459Z,86.10
2023-11-07T08:02:22.517Z,86.10
2023-11-07T08:04:49.324Z,85.90
2023-11-07T08:07:18.149Z,85.90
2023-11-07T08:09:45.589Z,85.80
2023-11-07T08:12:14.182Z,85.60
2023-11-07T08:14:42.474Z,85.60
2023-11-07T08:17:10.878Z,85.60
2023-11-07T08:19:37.806Z,85.40
2023-11-07T08:22:08.424Z,85.30
2023-11-07T08:24:35.570Z,85.30
2023-11-07T08:27:02.778Z,85.20
2023-11-07T08:29:29.699Z,85.00
2023-11-07T08:31:56.558Z,85.10
2023-11-07T08:34:24.263Z,84.90
2023-11-07T08:37:00.294Z,84.80
2023-11-07T08:39:35.141Z,84.80
2023-11-07T08:42:05.716Z,84.70
2023-11-07T08:44:32.625Z,84.60
2023-11-07T08:46:59.480Z,84.50
2023-11-07T08:49:26.454Z,84.50
2023-11-07T08:51:53.736Z,84.30
2023-11-07T08:54:20.705Z,84.30
2023-11-07T08:56:50.656Z,84.00
2023-11-07T08:59:20.432Z,84.00
2023-11-07T09:01:52.606Z,84.10
2023-11-07T09:04:19.448Z,83.70
2023-11-07T09:06:46.329Z,84.00
2023-11-07T09:09:16.607Z,83.80
2023-11-07T09:11:44.826Z,83.80
2023-11-07T09:16:48.169Z,84.20
2023-11-07T09:19:15.070Z,86.00
2023-11-07T09:21:44.128Z,85.40
2023-11-07T09:24:11.023Z,84.50
2023-11-07T09:26:37.880Z,80.60
2023-11-07T09:29:05.725Z,80.60
2023-11-07T09:31:32.449Z,80.40
2023-11-07T09:34:00.548Z,78.80
2023-11-07T09:36:28.482Z,78.30
2023-11-07T09:38:57.202Z,76.80
2023-11-07T09:41:23.957Z,76.00
2023-11-07T09:43:52.262Z,73.90
2023-11-07T09:46:24.267Z,73.00
2023-11-07T09:48:52.587Z,71.20
2023-11-07T09:51:22.462Z,71.30
2023-11-07T09:53:52.734Z,70.10
2023-11-07T09:56:24.219Z,69.10
2023-11-07T09:58:55.001Z,68.00
2023-11-07T10:01:23.442Z,67.80
2023-11-07T10:03:52.181Z,67.00
2023-11-07T10:06:19.418Z,65.60
2023-11-07T10:08:46.293Z,65.50
2023-11-07T10:11:15.146Z,62.10
2023-11-07T10:14:01.580Z,64.30
2023-11-07T10:16:39.091Z,59.20
2023-11-07T10:19:06.793Z,59.90
2023-11-07T10:21:34.272Z,62.30
2023-11-07T10:24:01.738Z,60.10
2023-11-07T10:26:30.421Z,61.20
2023-11-07T10:29:17.971Z,61.20
2023-11-07T10:32:04.268Z,59.40
2023-11-07T10:34:34.337Z,58.00
2023-11-07T10:37:01.256Z,59.30
2023-11-07T10:39:28.699Z,59.20
2023-11-07T10:41:59.600Z,58.30
2023-11-07T10:44:31.046Z,58.20
2023-11-07T10:47:01.914Z,56.20
2023-11-07T10:49:32.215Z,56.40
2023-11-07T10:52:04.060Z,57.10
2023-11-07T10:54:31.990Z,56.50
2023-11-07T10:57:07.031Z,55.90
2023-11-07T10:59:35.331Z,55.80
2023-11-07T11:02:03.641Z,55.10
2023-11-07T11:04:38.298Z,54.90
2023-11-07T11:07:09.125Z,54.80
2023-11-07T11:09:36.607Z,54.90
2023-11-07T11:12:05.315Z,54.40
2023-11-07T11:14:32.223Z,54.30
2023-11-07T11:17:20.442Z,54.00
2023-11-07T11:20:24.051Z,52.60
2023-11-07T11:23:05.149Z,52.30
2023-11-07T11:25:45.569Z,51.50
2023-11-07T11:28:12.392Z,52.70
2023-11-07T11:30:40.429Z,52.40
2023-11-07T11:33:12.467Z,53.20
2023-11-07T11:35:42.315Z,53.70
2023-11-07T11:38:22.657Z,53.60
2023-11-07T11:40:57.827Z,52.70
2023-11-07T11:43:27.193Z,52.40
2023-11-07T11:45:56.832Z,52.20
2023-11-07T11:48:56.471Z,51.00
2023-11-07T11:51:43.380Z,51.90
2023-11-07T11:54:11.737Z,50.50
2023-11-07T11:56:50.699Z,50.90
2023-11-07T11:59:20.603Z,49.50
2023-11-07T12:01:51.361Z,50.90
2023-11-07T12:04:37.504Z,50.50
2023-11-07T12:07:08.174Z,49.60
2023-11-07T12:09:35.182Z,50.60
2023-11-07T12:12:03.273Z,51.30
2023-11-07T12:14:30.804Z,51.60
2023-11-07T12:16:58.702Z,51.20
2023-11-07T12:19:26.495Z,51.60
2023-11-07T12:21:54.439Z,51.20
2023-11-07T12:24:21.507Z,51.70
2023-11-07T12:26:48.948Z,52.20
2023-11-07T12:29:29.472Z,52.60
2023-11-07T12:31:56.390Z,53.70
2023-11-07T12:34:50.128Z,54.60
2023-11-07T12:37:21.491Z,55.90
2023-11-07T12:39:50.073Z,56.10
2023-11-07T12:42:17.252Z,56.70
2023-11-07T12:44:50.438Z,56.40
2023-11-07T12:47:17.376Z,56.20
2023-11-07T12:49:45.068Z,56.80
2023-11-07T12:52:13.064Z,56.40
2023-11-07T12:54:41.556Z,55.70
2023-11-07T12:57:08.522Z,54.60
2023-11-07T12:59:36.026Z,53.90
2023-11-07T13:02:04.666Z,53.50
2023-11-07T13:07:06.819Z,52.30
2023-11-07T13:09:36.715Z,52.10
2023-11-07T13:12:11.200Z,51.90
2023-11-07T13:14:41.340Z,52.00
2023-11-07T13:17:09.608Z,51.70
2023-11-07T13:19:37.507Z,51.00
2023-11-07T13:22:05.249Z,51.20
2023-11-07T13:24:32.710Z,51.10
2023-11-07T13:27:00.255Z,51.50
2023-11-07T13:29:28.353Z,51.40
2023-11-07T13:31:55.965Z,51.80
2023-11-07T13:34:22.931Z,52.20
2023-11-07T13:36:49.902Z,52.50
2023-11-07T13:39:24.051Z,52.40
2023-11-07T13:41:51.714Z,52.90
2023-11-07T13:44:18.684Z,53.30
2023-11-07T13:46:45.503Z,53.90
2023-11-07T13:49:12.468Z,54.40
2023-11-07T13:51:39.724Z,54.70
2023-11-07T13:54:09.458Z,55.30
2023-11-07T13:56:36.832Z,55.90
2023-11-07T13:59:07.111Z,56.40
2023-11-07T14:01:37.945Z,56.60
2023-11-07T14:04:10.618Z,56.80
2023-11-07T14:06:37.675Z,57.10
2023-11-07T14:09:05.996Z,57.40
2023-11-07T14:11:34.663Z,57.70
2023-11-07T14:14:01.527Z,57.80
2023-11-07T14:16:28.397Z,58.00
2023-11-07T14:18:55.643Z,58.10
2023-11-07T14:21:22.808Z,58.30
2023-11-07T14:23:49.816Z,58.50
2023-11-07T14:26:17.685Z,58.80
2023-11-07T14:28:55.102Z,59.00
2023-11-07T14:31:30.382Z,59.40
2023-11-07T14:33:59.625Z,59.70
2023-11-07T14:36:30.888Z,60.00
2023-11-07T14:38:58.159Z,60.30
2023-11-07T14:41:25.069Z,60.60
2023-11-07T14:43:51.885Z,60.80
2023-11-07T14:46:20.718Z,60.90
2023-11-07T14:48:47.780Z,61.20
2023-11-07T14:51:16.313Z,61.40
2023-11-07T14:53:43.124Z,61.50
2023-11-07T14:56:12.144Z,61.50
2023-11-07T14:58:39.445Z,61.80
2023-11-07T15:01:07.613Z,61.80
2023-11-07T15:03:34.672Z,62.00
2023-11-07T15:06:03.831Z,62.10
2023-11-07T15:08:31.431Z,62.40
2023-11-07T15:10:58.710Z,62.50
2023-11-07T15:13:26.150Z,62.80
2023-11-07T15:15:53.291Z,62.90
2023-11-07T15:18:24.568Z,63.10
2023-11-07T15:20:52.236Z,62.90
2023-11-07T15:23:19.205Z,63.30
2023-11-07T15:25:46.065Z,63.30
2023-11-07T15:28:12.915Z,63.30
2023-11-07T15:30:39.696Z,63.60
2023-11-07T15:33:08.188Z,63.70
2023-11-07T15:35:38.265Z,63.70
2023-11-07T15:38:09.155Z,63.90
2023-11-07T15:40:37.182Z,64.00
2023-11-07T15:43:06.069Z,64.10
2023-11-07T15:45:33.875Z,64.50
2023-11-07T15:48:01.364Z,64.60
2023-11-07T15:50:28.684Z,64.80
2023-11-07T15:53:07.479Z,64.80
2023-11-07T15:55:41.314Z,65.00
2023-11-07T15:58:08.769Z,65.40
2023-11-07T16:00:36.244Z,65.50
2023-11-07T16:03:05.245Z,65.70
2023-11-07T16:05:37.146Z,65.90
2023-11-07T16:08:06.363Z,66.50
2023-11-07T16:10:34.577Z,66.00
2023-11-07T16:13:03.712Z,66.10
2023-11-07T16:15:31.022Z,66.20
2023-11-07T16:17:58.174Z,66.40
2023-11-07T16:20:26.212Z,66.50
2023-11-07T16:22:53.083Z,66.70
2023-11-07T16:25:20.177Z,66.80
2023-11-07T16:27:47.561Z,67.00
2023-11-07T16:30:16.914Z,67.00
2023-11-07T16:32:44.401Z,67.20
2023-11-07T16:35:12.060Z,67.30
2023-11-07T16:37:39.356Z,67.50
2023-11-07T16:40:12.859Z,67.50
2023-11-07T16:42:41.663Z,67.60
2023-11-07T16:45:09.701Z,67.60
2023-11-07T16:47:37.648Z,67.80
2023-11-07T16:50:04.797Z,68.00
2023-11-07T16:52:31.591Z,68.00
2023-11-07T16:54:58.567Z,68.00
2023-11-07T16:57:25.712Z,68.10
2023-11-07T16:59:53.065Z,68.20
2023-11-07T17:02:20.316Z,68.30
2023-11-07T17:04:47.699Z,68.20
2023-11-07T17:07:15.064Z,68.30
2023-11-07T17:09:42.506Z,68.50
2023-11-07T17:12:09.593Z,68.60
2023-11-07T17:14:38.589Z,68.60
2023-11-07T17:17:06.468Z,68.60
2023-11-07T17:19:33.836Z,68.80
2023-11-07T17:22:01.182Z,68.90
2023-11-07T17:24:28.946Z,69.00
2023-11-07T17:26:56.172Z,69.30
2023-11-07T17:29:23.580Z,69.30
2023-11-07T17:31:50.538Z,69.50
2023-11-07T17:34:17.850Z,69.60
2023-11-07T17:36:47.420Z,69.90
2023-11-07T17:39:16.749Z,70.10
2023-11-07T17:41:45.487Z,70.20
2023-11-07T17:44:12.925Z,70.20
2023-11-07T17:46:49.113Z,70.50
2023-11-07T17:49:23.070Z,70.70
2023-11-07T17:51:50.735Z,70.70
2023-11-07T17:54:23.184Z,70.90
2023-11-07T17:56:49.996Z,71.10
2023-11-07T17:59:16.785Z,71.10
2023-11-07T18:01:43.855Z,71.50
2023-11-07T18:04:11.498Z,71.40
2023-11-07T18:06:41.297Z,71.60
2023-11-07T18:09:13.970Z,71.90
2023-11-07T18:11:42.043Z,72.50
2023-11-07T18:14:12.530Z,72.20
2023-11-07T18:16:39.820Z,72.10
2023-11-07T18:19:06.872Z,72.20
2023-11-07T18:21:35.633Z,72.70
2023-11-07T18:24:04.629Z,72.50
2023-11-07T18:26:31.463Z,72.60
2023-11-07T18:28:58.640Z,73.10
2023-11-07T18:31:28.363Z,74.60
2023-11-07T18:33:55.987Z,74.40
2023-11-07T18:36:22.943Z,75.80
2023-11-07T18:38:49.883Z,74.60
2023-11-07T18:41:20.748Z,74.70
2023-11-07T18:43:47.694Z,74.90
2023-11-07T18:46:15.913Z,75.20
2023-11-07T18:48:43.361Z,75.40
2023-11-07T18:51:13.353Z,75.40
2023-11-07T18:53:46.022Z,75.80
2023-11-07T18:56:14.451Z,75.90
2023-11-07T18:58:41.369Z,76.00
2023-11-07T19:01:11.232Z,76.60
2023-11-07T19:03:38.168Z,77.00
2023-11-07T19:06:06.147Z,77.00
2023-11-07T19:08:33.477Z,76.80
2023-11-07T19:11:01.055Z,77.20
2023-11-07T19:13:28.215Z,77.10
2023-11-07T19:15:55.814Z,76.80
2023-11-07T19:18:24.134Z,77.10
2023-11-07T19:20:52.360Z,77.30
2023-11-07T19:23:20.710Z,77.50
2023-11-07T19:25:49.141Z,77.90
2023-11-07T19:28:16.052Z,77.60
2023-11-07T19:33:28.316Z,77.70
2023-11-07T19:35:55.515Z,78.00
2023-11-07T19:38:24.325Z,77.80
2023-11-07T19:40:51.158Z,78.00
2023-11-07T19:43:21.594Z,78.40
2023-11-07T19:45:53.470Z,77.90
2023-11-07T19:48:23.466Z,78.40
2023-11-07T19:50:50.866Z,78.40
2023-11-07T19:53:17.667Z,78.20
2023-11-07T19:55:44.527Z,78.30
2023-11-07T19:58:11.568Z,78.30
2023-11-07T20:00:38.581Z,78.40
2023-11-07T20:03:06.458Z,78.60
2023-11-07T20:05:33.725Z,78.50
2023-11-07T20:08:00.835Z,78.60
2023-11-07T20:10:28.916Z,78.50
2023-11-07T20:12:55.665Z,78.50
2023-11-07T20:15:22.570Z,78.60
2023-11-07T20:17:49.531Z,78.90
2023-11-07T20:20:16.633Z,78.90
2023-11-07T20:22:45.078Z,78.80
2023-11-07T20:25:12.088Z,78.60
2023-11-07T20:27:40.063Z,79.10
2023-11-07T20:30:17.007Z,79.30
2023-11-07T20:32:43.986Z,79.90
2023-11-07T20:35:10.966Z,80.10
2023-11-07T20:37:37.697Z,80.10
2023-11-07T20:40:06.840Z,80.10
2023-11-07T20:42:33.782Z,80.40
2023-11-07T20:45:08.187Z,80.20
2023-11-07T20:47:39.855Z,80.70
2023-11-07T20:50:09.708Z,81.20
2023-11-07T20:52:36.827Z,81.30
2023-11-07T20:55:03.954Z,81.60
2023-11-07T20:57:34.309Z,81.00
2023-11-07T21:00:01.610Z,80.80
2023-11-07T21:02:36.332Z,81.10
2023-11-07T21:05:03.349Z,80.90
2023-11-07T21:07:30.333Z,81.00
2023-11-07T21:09:58.278Z,80.90
2023-11-07T21:12:25.499Z,81.00
2023-11-07T21:17:38.535Z,80.80
2023-11-07T21:20:11.796Z,80.80
2023-11-07T21:22:41.690Z,81.20
2023-11-07T21:25:09.451Z,81.20
2023-11-07T21:27:36.739Z,82.90
2023-11-07T21:30:06.735Z,81.70
2023-11-07T21:32:35.183Z,81.90
2023-11-07T21:35:10.323Z,81.60
2023-11-07T21:37:38.519Z,81.80
2023-11-07T21:40:09.120Z,82.20
2023-11-07T21:42:39.446Z,81.90
2023-11-07T21:45:09.317Z,81.70
2023-11-07T21:47:36.389Z,82.00
2023-11-07T21:50:06.731Z,82.40
2023-11-07T21:52:33.861Z,82.50
2023-11-07T21:55:00.812Z,82.80
2023-11-07T21:57:27.841Z,82.50
2023-11-07T21:59:54.609Z,82.50
2023-11-07T22:02:21.692Z,82.40
2023-11-07T22:04:48.543Z,82.60
2023-11-07T22:07:15.370Z,82.50
2023-11-07T22:09:42.272Z,82.40
2023-11-07T22:12:09.129Z,82.40
2023-11-07T22:14:35.937Z,82.20
2023-11-07T22:17:02.868Z,82.10
2023-11-07T22:19:30.621Z,82.20
2023-11-07T22:21:58.082Z,82.30
2023-11-07T22:24:25.104Z,82.20
2023-11-07T22:26:54.205Z,82.30
2023-11-07T22:29:21.085Z,82.40
2023-11-07T22:31:48.386Z,82.50
2023-11-07T22:34:15.283Z,82.30
2023-11-07T22:36:42.192Z,82.60
2023-11-07T22:39:10.787Z,82.40
2023-11-07T22:41:37.700Z,82.60
2023-11-07T22:44:04.767Z,82.80
2023-11-07T22:46:31.591Z,82.80
2023-11-07T22:48:59.171Z,83.00
2023-11-07T22:51:26.254Z,83.00
2023-11-07T22:53:53.095Z,83.40
2023-11-07T22:56:19.854Z,83.20
2023-11-07T22:58:46.981Z,83.10
2023-11-07T23:01:14.799Z,83.10
2023-11-07T23:03:42.352Z,83.30
2023-11-07T23:06:09.295Z,83.30
2023-11-07T23:08:36.148Z,83.10
2023-11-07T23:11:03.185Z,83.40
2023-11-07T23:13:30.719Z,83.60
2023-11-07T23:15:58.578Z,83.90
2023-11-07T23:18:25.611Z,83.80
2023-11-07T23:20:52.439Z,83.60
2023-11-07T23:23:19.749Z,83.80
2023-11-07T23:25:47.064Z,83.70
2023-11-07T23:28:14.315Z,84.00
2023-11-07T23:30:41.552Z,84.20
2023-11-07T23:33:08.635Z,84.30
2023-11-07T23:35:35.552Z,84.00
2023-11-07T23:38:02.457Z,83.90
2023-11-07T23:40:30.221Z,83.90
2023-11-07T23:42:58.665Z,83.90
2023-11-07T23:45:28.363Z,84.10
2023-11-07T23:47:55.271Z,83.90
2023-11-07T23:50:22.369Z,84.30
2023-11-07T23:52:51.611Z,84.60
2023-11-07T23:55:19.137Z,84.60
2023-11-07T23:57:48.118Z,84.60
